sensor_id;sensor_type;location;lat;lon;timestamp;P1;durP1;ratioP1;P2;durP2;ratioP2
55146;SDS011;41039;49.830;23.988;2023-01-08T00:00:48;19.70;;;9.38;;
55146;SDS011;41039;49.830;23.988;2023-01-08T00:03:14;21.05;;;9.82;;
55146;SDS011;41039;49.830;23.988;2023-01-08T00:05:39;16.25;;;8.07;;
55146;SDS011;41039;49.830;23.988;2023-01-08T00:08:05;16.77;;;8.60;;
55146;SDS011;41039;49.830;23.988;2023-01-08T00:10:32;14.73;;;7.90;;
55146;SDS011;41039;49.830;23.988;2023-01-08T00:12:57;13.65;;;7.18;;
55146;SDS011;41039;49.830;23.988;2023-01-08T00:15:22;14.48;;;8.35;;
55146;SDS011;41039;49.830;23.988;2023-01-08T00:17:48;16.50;;;9.05;;
55146;SDS011;41039;49.830;23.988;2023-01-08T00:20:13;17.38;;;9.10;;
55146;SDS011;41039;49.830;23.988;2023-01-08T00:22:38;16.05;;;7.65;;
55146;SDS011;41039;49.830;23.988;2023-01-08T00:25:03;18.02;;;9.60;;
55146;SDS011;41039;49.830;23.988;2023-01-08T00:27:29;19.13;;;9.70;;
55146;SDS011;41039;49.830;23.988;2023-01-08T00:29:54;19.48;;;10.00;;
55146;SDS011;41039;49.830;23.988;2023-01-08T00:32:19;17.67;;;9.77;;
55146;SDS011;41039;49.830;23.988;2023-01-08T00:34:45;21.63;;;9.65;;
55146;SDS011;41039;49.830;23.988;2023-01-08T00:37:10;21.17;;;9.68;;
55146;SDS011;41039;49.830;23.988;2023-01-08T00:39:35;20.92;;;10.55;;
55146;SDS011;41039;49.830;23.988;2023-01-08T00:42:01;23.40;;;11.15;;
55146;SDS011;41039;49.830;23.988;2023-01-08T00:44:26;21.13;;;10.02;;
55146;SDS011;41039;49.830;23.988;2023-01-08T00:46:51;21.48;;;8.80;;
55146;SDS011;41039;49.830;23.988;2023-01-08T00:49:16;20.88;;;10.15;;
55146;SDS011;41039;49.830;23.988;2023-01-08T00:51:41;16.15;;;9.00;;
55146;SDS011;41039;49.830;23.988;2023-01-08T00:54:08;17.40;;;9.80;;
55146;SDS011;41039;49.830;23.988;2023-01-08T00:56:33;23.67;;;10.32;;
55146;SDS011;41039;49.830;23.988;2023-01-08T00:58:58;19.20;;;9.93;;
55146;SDS011;41039;49.830;23.988;2023-01-08T01:01:23;23.60;;;10.63;;
55146;SDS011;41039;49.830;23.988;2023-01-08T01:03:49;22.50;;;9.95;;
55146;SDS011;41039;49.830;23.988;2023-01-08T01:06:14;18.50;;;11.18;;
55146;SDS011;41039;49.830;23.988;2023-01-08T01:08:39;18.73;;;9.98;;
55146;SDS011;41039;49.830;23.988;2023-01-08T01:11:08;20.80;;;11.15;;
55146;SDS011;41039;49.830;23.988;2023-01-08T01:13:34;23.98;;;11.02;;
55146;SDS011;41039;49.830;23.988;2023-01-08T01:16:00;17.40;;;9.43;;
55146;SDS011;41039;49.830;23.988;2023-01-08T01:18:25;21.00;;;9.85;;
55146;SDS011;41039;49.830;23.988;2023-01-08T01:20:51;20.65;;;9.88;;
55146;SDS011;41039;49.830;23.988;2023-01-08T01:23:16;19.60;;;9.13;;
55146;SDS011;41039;49.830;23.988;2023-01-08T01:25:41;22.42;;;10.88;;
55146;SDS011;41039;49.830;23.988;2023-01-08T01:28:06;25.30;;;10.63;;
55146;SDS011;41039;49.830;23.988;2023-01-08T01:30:32;25.45;;;9.73;;
55146;SDS011;41039;49.830;23.988;2023-01-08T01:32:57;24.45;;;10.80;;
55146;SDS011;41039;49.830;23.988;2023-01-08T01:35:22;18.50;;;10.18;;
55146;SDS011;41039;49.830;23.988;2023-01-08T01:37:47;18.73;;;9.40;;
55146;SDS011;41039;49.830;23.988;2023-01-08T01:40:12;17.00;;;8.23;;
55146;SDS011;41039;49.830;23.988;2023-01-08T01:42:38;18.25;;;8.48;;
55146;SDS011;41039;49.830;23.988;2023-01-08T01:45:26;22.50;;;10.18;;
55146;SDS011;41039;49.830;23.988;2023-01-08T01:50:31;20.13;;;11.43;;
55146;SDS011;41039;49.830;23.988;2023-01-08T01:53:04;22.38;;;11.95;;
55146;SDS011;41039;49.830;23.988;2023-01-08T01:55:32;23.17;;;11.05;;
55146;SDS011;41039;49.830;23.988;2023-01-08T01:58:06;18.38;;;9.55;;
55146;SDS011;41039;49.830;23.988;2023-01-08T02:00:33;16.77;;;9.50;;
55146;SDS011;41039;49.830;23.988;2023-01-08T02:02:59;25.67;;;10.93;;
55146;SDS011;41039;49.830;23.988;2023-01-08T02:05:25;26.25;;;11.73;;
55146;SDS011;41039;49.830;23.988;2023-01-08T02:07:55;22.55;;;11.32;;
55146;SDS011;41039;49.830;23.988;2023-01-08T02:10:29;22.27;;;10.93;;
55146;SDS011;41039;49.830;23.988;2023-01-08T02:12:57;24.00;;;12.15;;
55146;SDS011;41039;49.830;23.988;2023-01-08T02:17:54;24.80;;;11.00;;
55146;SDS011;41039;49.830;23.988;2023-01-08T02:27:55;19.13;;;9.75;;
55146;SDS011;41039;49.830;23.988;2023-01-08T02:30:21;18.60;;;9.40;;
55146;SDS011;41039;49.830;23.988;2023-01-08T02:32:47;17.90;;;9.40;;
55146;SDS011;41039;49.830;23.988;2023-01-08T02:35:12;15.00;;;8.75;;
55146;SDS011;41039;49.830;23.988;2023-01-08T02:37:37;15.68;;;8.65;;
55146;SDS011;41039;49.830;23.988;2023-01-08T02:50:48;17.63;;;8.63;;
55146;SDS011;41039;49.830;23.988;2023-01-08T02:53:16;16.95;;;9.13;;
55146;SDS011;41039;49.830;23.988;2023-01-08T02:55:52;17.90;;;8.60;;
55146;SDS011;41039;49.830;23.988;2023-01-08T02:58:18;15.75;;;8.30;;
55146;SDS011;41039;49.830;23.988;2023-01-08T03:00:45;14.50;;;7.45;;
55146;SDS011;41039;49.830;23.988;2023-01-08T03:03:13;14.85;;;7.97;;
55146;SDS011;41039;49.830;23.988;2023-01-08T03:05:40;17.85;;;8.32;;
55146;SDS011;41039;49.830;23.988;2023-01-08T03:08:05;15.40;;;8.65;;
55146;SDS011;41039;49.830;23.988;2023-01-08T03:10:31;16.50;;;8.25;;
55146;SDS011;41039;49.830;23.988;2023-01-08T03:13:16;15.70;;;7.75;;
55146;SDS011;41039;49.830;23.988;2023-01-08T03:15:49;14.32;;;7.45;;
55146;SDS011;41039;49.830;23.988;2023-01-08T03:18:17;14.90;;;7.10;;
55146;SDS011;41039;49.830;23.988;2023-01-08T03:20:44;17.33;;;8.40;;
55146;SDS011;41039;49.830;23.988;2023-01-08T03:23:11;15.60;;;8.30;;
55146;SDS011;41039;49.830;23.988;2023-01-08T03:25:39;14.52;;;7.47;;
55146;SDS011;41039;49.830;23.988;2023-01-08T03:28:06;14.98;;;8.27;;
55146;SDS011;41039;49.830;23.988;2023-01-08T03:30:32;14.50;;;6.63;;
55146;SDS011;41039;49.830;23.988;2023-01-08T03:32:59;15.80;;;8.18;;
55146;SDS011;41039;49.830;23.988;2023-01-08T03:35:25;16.48;;;7.80;;
55146;SDS011;41039;49.830;23.988;2023-01-08T03:37:53;14.88;;;7.75;;
55146;SDS011;41039;49.830;23.988;2023-01-08T03:40:20;13.93;;;7.90;;
55146;SDS011;41039;49.830;23.988;2023-01-08T03:42:45;16.75;;;8.05;;
55146;SDS011;41039;49.830;23.988;2023-01-08T03:45:11;18.38;;;9.55;;
55146;SDS011;41039;49.830;23.988;2023-01-08T03:47:36;15.55;;;7.85;;
55146;SDS011;41039;49.830;23.988;2023-01-08T03:50:02;19.13;;;9.18;;
55146;SDS011;41039;49.830;23.988;2023-01-08T03:52:29;18.85;;;9.50;;
55146;SDS011;41039;49.830;23.988;2023-01-08T03:54:55;16.65;;;9.27;;
55146;SDS011;41039;49.830;23.988;2023-01-08T03:57:20;19.20;;;9.57;;
55146;SDS011;41039;49.830;23.988;2023-01-08T03:59:46;20.05;;;10.60;;
55146;SDS011;41039;49.830;23.988;2023-01-08T04:02:11;24.77;;;11.77;;
55146;SDS011;41039;49.830;23.988;2023-01-08T04:04:36;35.30;;;15.63;;
55146;SDS011;41039;49.830;23.988;2023-01-08T04:07:01;41.08;;;18.63;;
55146;SDS011;41039;49.830;23.988;2023-01-08T04:09:27;22.50;;;11.48;;
55146;SDS011;41039;49.830;23.988;2023-01-08T04:11:52;19.55;;;10.73;;
55146;SDS011;41039;49.830;23.988;2023-01-08T04:14:17;20.30;;;12.32;;
55146;SDS011;41039;49.830;23.988;2023-01-08T04:16:43;18.85;;;10.55;;
55146;SDS011;41039;49.830;23.988;2023-01-08T04:19:09;19.48;;;10.07;;
55146;SDS011;41039;49.830;23.988;2023-01-08T04:21:34;15.43;;;8.80;;
55146;SDS011;41039;49.830;23.988;2023-01-08T04:24:00;16.33;;;8.60;;
55146;SDS011;41039;49.830;23.988;2023-01-08T04:26:25;18.88;;;10.57;;
55146;SDS011;41039;49.830;23.988;2023-01-08T04:28:50;16.35;;;8.32;;
55146;SDS011;41039;49.830;23.988;2023-01-08T04:31:15;15.07;;;8.25;;
55146;SDS011;41039;49.830;23.988;2023-01-08T04:33:40;13.05;;;7.65;;
55146;SDS011;41039;49.830;23.988;2023-01-08T04:36:06;15.93;;;7.35;;
55146;SDS011;41039;49.830;23.988;2023-01-08T04:38:31;14.25;;;7.43;;
55146;SDS011;41039;49.830;23.988;2023-01-08T04:40:57;15.55;;;6.82;;
55146;SDS011;41039;49.830;23.988;2023-01-08T04:43:22;12.85;;;7.43;;
55146;SDS011;41039;49.830;23.988;2023-01-08T04:45:47;16.10;;;7.90;;
55146;SDS011;41039;49.830;23.988;2023-01-08T04:48:13;13.55;;;7.50;;
55146;SDS011;41039;49.830;23.988;2023-01-08T04:50:38;13.32;;;7.00;;
55146;SDS011;41039;49.830;23.988;2023-01-08T04:53:03;15.88;;;6.88;;
55146;SDS011;41039;49.830;23.988;2023-01-08T04:55:28;16.60;;;7.72;;
55146;SDS011;41039;49.830;23.988;2023-01-08T04:57:53;15.35;;;8.05;;
55146;SDS011;41039;49.830;23.988;2023-01-08T05:00:19;16.95;;;7.97;;
55146;SDS011;41039;49.830;23.988;2023-01-08T05:02:44;19.27;;;9.57;;
55146;SDS011;41039;49.830;23.988;2023-01-08T05:05:09;17.63;;;7.97;;
55146;SDS011;41039;49.830;23.988;2023-01-08T05:07:34;15.30;;;8.25;;
55146;SDS011;41039;49.830;23.988;2023-01-08T05:09:59;22.40;;;9.15;;
55146;SDS011;41039;49.830;23.988;2023-01-08T05:12:25;19.00;;;9.20;;
55146;SDS011;41039;49.830;23.988;2023-01-08T05:14:50;28.35;;;15.00;;
55146;SDS011;41039;49.830;23.988;2023-01-08T05:17:15;17.65;;;9.13;;
55146;SDS011;41039;49.830;23.988;2023-01-08T05:19:40;16.77;;;7.80;;
55146;SDS011;41039;49.830;23.988;2023-01-08T05:22:06;16.20;;;8.93;;
55146;SDS011;41039;49.830;23.988;2023-01-08T05:24:31;16.73;;;9.30;;
55146;SDS011;41039;49.830;23.988;2023-01-08T05:26:56;15.27;;;8.60;;
55146;SDS011;41039;49.830;23.988;2023-01-08T05:29:21;16.70;;;8.10;;
55146;SDS011;41039;49.830;23.988;2023-01-08T05:31:46;20.45;;;8.30;;
55146;SDS011;41039;49.830;23.988;2023-01-08T05:34:12;14.15;;;8.18;;
55146;SDS011;41039;49.830;23.988;2023-01-08T05:36:37;15.00;;;7.95;;
55146;SDS011;41039;49.830;23.988;2023-01-08T05:39:02;18.13;;;9.05;;
55146;SDS011;41039;49.830;23.988;2023-01-08T05:41:28;18.98;;;9.88;;
55146;SDS011;41039;49.830;23.988;2023-01-08T05:43:53;19.67;;;9.93;;
55146;SDS011;41039;49.830;23.988;2023-01-08T05:46:18;18.55;;;9.32;;
55146;SDS011;41039;49.830;23.988;2023-01-08T05:48:43;23.58;;;10.82;;
55146;SDS011;41039;49.830;23.988;2023-01-08T05:51:09;18.67;;;9.00;;
55146;SDS011;41039;49.830;23.988;2023-01-08T05:53:34;21.75;;;10.00;;
55146;SDS011;41039;49.830;23.988;2023-01-08T05:56:03;20.15;;;8.73;;
55146;SDS011;41039;49.830;23.988;2023-01-08T05:58:28;15.68;;;9.35;;
55146;SDS011;41039;49.830;23.988;2023-01-08T06:00:54;17.17;;;9.38;;
55146;SDS011;41039;49.830;23.988;2023-01-08T06:03:24;16.75;;;8.88;;
55146;SDS011;41039;49.830;23.988;2023-01-08T06:05:49;17.27;;;8.18;;
55146;SDS011;41039;49.830;23.988;2023-01-08T06:08:15;16.85;;;9.18;;
55146;SDS011;41039;49.830;23.988;2023-01-08T06:10:40;15.77;;;8.30;;
55146;SDS011;41039;49.830;23.988;2023-01-08T06:13:06;16.88;;;10.32;;
55146;SDS011;41039;49.830;23.988;2023-01-08T06:15:31;17.35;;;8.75;;
55146;SDS011;41039;49.830;23.988;2023-01-08T06:17:57;18.17;;;8.68;;
55146;SDS011;41039;49.830;23.988;2023-01-08T06:20:25;20.33;;;10.52;;
55146;SDS011;41039;49.830;23.988;2023-01-08T06:22:52;16.70;;;9.65;;
55146;SDS011;41039;49.830;23.988;2023-01-08T06:25:17;16.20;;;8.82;;
55146;SDS011;41039;49.830;23.988;2023-01-08T06:27:42;17.38;;;8.75;;
55146;SDS011;41039;49.830;23.988;2023-01-08T06:30:08;16.35;;;9.40;;
55146;SDS011;41039;49.830;23.988;2023-01-08T06:32:33;17.98;;;9.10;;
55146;SDS011;41039;49.830;23.988;2023-01-08T06:34:58;16.95;;;9.20;;
55146;SDS011;41039;49.830;23.988;2023-01-08T06:37:23;17.63;;;9.15;;
55146;SDS011;41039;49.830;23.988;2023-01-08T06:39:48;18.85;;;9.65;;
55146;SDS011;41039;49.830;23.988;2023-01-08T06:42:14;17.73;;;10.18;;
55146;SDS011;41039;49.830;23.988;2023-01-08T06:44:39;20.35;;;8.77;;
55146;SDS011;41039;49.830;23.988;2023-01-08T06:47:04;20.08;;;9.05;;
55146;SDS011;41039;49.830;23.988;2023-01-08T06:49:29;18.17;;;9.25;;
55146;SDS011;41039;49.830;23.988;2023-01-08T06:51:55;20.33;;;10.15;;
55146;SDS011;41039;49.830;23.988;2023-01-08T06:54:21;20.80;;;11.10;;
55146;SDS011;41039;49.830;23.988;2023-01-08T06:56:49;20.83;;;10.20;;
55146;SDS011;41039;49.830;23.988;2023-01-08T06:59:14;19.73;;;10.60;;
55146;SDS011;41039;49.830;23.988;2023-01-08T07:01:40;19.35;;;10.60;;
55146;SDS011;41039;49.830;23.988;2023-01-08T07:04:05;19.80;;;9.93;;
55146;SDS011;41039;49.830;23.988;2023-01-08T07:06:30;19.67;;;10.43;;
55146;SDS011;41039;49.830;23.988;2023-01-08T07:08:55;19.85;;;9.95;;
55146;SDS011;41039;49.830;23.988;2023-01-08T07:11:20;20.60;;;11.13;;
55146;SDS011;41039;49.830;23.988;2023-01-08T07:13:46;24.15;;;10.38;;
55146;SDS011;41039;49.830;23.988;2023-01-08T07:16:12;18.63;;;10.88;;
55146;SDS011;41039;49.830;23.988;2023-01-08T07:18:37;21.75;;;12.73;;
55146;SDS011;41039;49.830;23.988;2023-01-08T07:21:03;21.35;;;12.95;;
55146;SDS011;41039;49.830;23.988;2023-01-08T07:23:28;24.98;;;11.85;;
55146;SDS011;41039;49.830;23.988;2023-01-08T07:25:53;26.70;;;13.55;;
55146;SDS011;41039;49.830;23.988;2023-01-08T07:28:19;23.40;;;11.77;;
55146;SDS011;41039;49.830;23.988;2023-01-08T07:30:44;23.42;;;12.65;;
55146;SDS011;41039;49.830;23.988;2023-01-08T07:33:09;23.17;;;12.70;;
55146;SDS011;41039;49.830;23.988;2023-01-08T07:35:34;23.10;;;10.90;;
55146;SDS011;41039;49.830;23.988;2023-01-08T07:38:00;25.10;;;12.15;;
55146;SDS011;41039;49.830;23.988;2023-01-08T07:40:26;21.58;;;11.68;;
55146;SDS011;41039;49.830;23.988;2023-01-08T07:42:58;21.67;;;11.18;;
55146;SDS011;41039;49.830;23.988;2023-01-08T07:45:23;20.25;;;9.90;;
55146;SDS011;41039;49.830;23.988;2023-01-08T07:47:48;30.05;;;15.73;;
55146;SDS011;41039;49.830;23.988;2023-01-08T07:50:14;32.05;;;14.07;;
55146;SDS011;41039;49.830;23.988;2023-01-08T07:52:39;27.25;;;13.98;;
55146;SDS011;41039;49.830;23.988;2023-01-08T07:55:04;23.50;;;11.65;;
55146;SDS011;41039;49.830;23.988;2023-01-08T07:57:29;22.98;;;11.02;;
55146;SDS011;41039;49.830;23.988;2023-01-08T07:59:55;25.60;;;12.65;;
55146;SDS011;41039;49.830;23.988;2023-01-08T08:02:20;28.55;;;15.32;;
55146;SDS011;41039;49.830;23.988;2023-01-08T08:04:45;22.92;;;11.38;;
55146;SDS011;41039;49.830;23.988;2023-01-08T08:07:10;23.17;;;11.80;;
55146;SDS011;41039;49.830;23.988;2023-01-08T08:09:35;21.05;;;10.52;;
55146;SDS011;41039;49.830;23.988;2023-01-08T08:12:01;23.38;;;11.85;;
55146;SDS011;41039;49.830;23.988;2023-01-08T08:14:26;27.48;;;14.05;;
55146;SDS011;41039;49.830;23.988;2023-01-08T08:16:51;24.77;;;13.02;;
55146;SDS011;41039;49.830;23.988;2023-01-08T08:19:17;35.72;;;16.67;;
55146;SDS011;41039;49.830;23.988;2023-01-08T08:21:42;27.98;;;12.80;;
55146;SDS011;41039;49.830;23.988;2023-01-08T08:24:07;27.92;;;12.30;;
55146;SDS011;41039;49.830;23.988;2023-01-08T08:26:32;21.83;;;11.40;;
55146;SDS011;41039;49.830;23.988;2023-01-08T08:28:58;25.08;;;10.65;;
55146;SDS011;41039;49.830;23.988;2023-01-08T08:31:23;23.85;;;12.32;;
55146;SDS011;41039;49.830;23.988;2023-01-08T08:33:48;20.50;;;11.20;;
55146;SDS011;41039;49.830;23.988;2023-01-08T08:36:13;27.25;;;13.15;;
55146;SDS011;41039;49.830;23.988;2023-01-08T08:38:38;27.77;;;12.40;;
55146;SDS011;41039;49.830;23.988;2023-01-08T08:41:04;25.85;;;12.70;;
55146;SDS011;41039;49.830;23.988;2023-01-08T08:43:29;26.40;;;14.63;;
55146;SDS011;41039;49.830;23.988;2023-01-08T08:45:55;30.17;;;12.63;;
55146;SDS011;41039;49.830;23.988;2023-01-08T08:48:20;27.73;;;12.70;;
55146;SDS011;41039;49.830;23.988;2023-01-08T08:50:46;26.63;;;13.30;;
55146;SDS011;41039;49.830;23.988;2023-01-08T08:53:11;27.50;;;12.85;;
55146;SDS011;41039;49.830;23.988;2023-01-08T08:55:36;31.30;;;15.35;;
55146;SDS011;41039;49.830;23.988;2023-01-08T08:58:05;28.92;;;13.48;;
55146;SDS011;41039;49.830;23.988;2023-01-08T09:00:31;32.80;;;14.43;;
55146;SDS011;41039;49.830;23.988;2023-01-08T09:02:56;32.40;;;14.18;;
55146;SDS011;41039;49.830;23.988;2023-01-08T09:05:21;33.20;;;17.00;;
55146;SDS011;41039;49.830;23.988;2023-01-08T09:07:47;30.13;;;15.82;;
55146;SDS011;41039;49.830;23.988;2023-01-08T09:10:12;31.40;;;15.20;;
55146;SDS011;41039;49.830;23.988;2023-01-08T09:12:37;32.30;;;15.85;;
55146;SDS011;41039;49.830;23.988;2023-01-08T09:15:02;35.10;;;16.58;;
55146;SDS011;41039;49.830;23.988;2023-01-08T09:17:28;30.27;;;15.73;;
55146;SDS011;41039;49.830;23.988;2023-01-08T09:19:53;38.65;;;18.33;;
55146;SDS011;41039;49.830;23.988;2023-01-08T09:22:19;31.55;;;15.45;;
55146;SDS011;41039;49.830;23.988;2023-01-08T09:24:44;33.67;;;17.08;;
55146;SDS011;41039;49.830;23.988;2023-01-08T09:27:09;33.55;;;15.85;;
55146;SDS011;41039;49.830;23.988;2023-01-08T09:29:34;37.63;;;16.52;;
55146;SDS011;41039;49.830;23.988;2023-01-08T09:32:00;31.85;;;14.40;;
55146;SDS011;41039;49.830;23.988;2023-01-08T09:34:26;34.67;;;16.52;;
55146;SDS011;41039;49.830;23.988;2023-01-08T09:36:51;32.35;;;16.13;;
55146;SDS011;41039;49.830;23.988;2023-01-08T09:39:16;26.58;;;14.80;;
55146;SDS011;41039;49.830;23.988;2023-01-08T09:41:42;32.95;;;14.95;;
55146;SDS011;41039;49.830;23.988;2023-01-08T09:44:16;37.05;;;16.92;;
55146;SDS011;41039;49.830;23.988;2023-01-08T09:46:42;41.50;;;19.30;;
55146;SDS011;41039;49.830;23.988;2023-01-08T09:49:09;39.85;;;18.48;;
55146;SDS011;41039;49.830;23.988;2023-01-08T09:51:37;37.65;;;17.83;;
55146;SDS011;41039;49.830;23.988;2023-01-08T09:54:03;38.55;;;19.50;;
55146;SDS011;41039;49.830;23.988;2023-01-08T09:56:29;38.47;;;17.33;;
55146;SDS011;41039;49.830;23.988;2023-01-08T09:59:00;37.40;;;17.02;;
55146;SDS011;41039;49.830;23.988;2023-01-08T10:01:30;34.78;;;19.05;;
55146;SDS011;41039;49.830;23.988;2023-01-08T10:04:13;37.38;;;16.38;;
55146;SDS011;41039;49.830;23.988;2023-01-08T10:06:39;37.20;;;17.08;;
55146;SDS011;41039;49.830;23.988;2023-01-08T10:09:04;38.35;;;17.48;;
55146;SDS011;41039;49.830;23.988;2023-01-08T10:11:37;39.00;;;20.13;;
55146;SDS011;41039;49.830;23.988;2023-01-08T10:14:03;39.28;;;18.45;;
55146;SDS011;41039;49.830;23.988;2023-01-08T10:16:33;31.45;;;16.27;;
55146;SDS011;41039;49.830;23.988;2023-01-08T10:19:01;37.78;;;18.88;;
55146;SDS011;41039;49.830;23.988;2023-01-08T10:21:30;34.45;;;15.88;;
55146;SDS011;41039;49.830;23.988;2023-01-08T10:23:57;48.05;;;20.98;;
55146;SDS011;41039;49.830;23.988;2023-01-08T10:26:29;34.42;;;16.17;;
55146;SDS011;41039;49.830;23.988;2023-01-08T10:29:05;37.03;;;18.90;;
55146;SDS011;41039;49.830;23.988;2023-01-08T10:31:31;36.78;;;17.00;;
55146;SDS011;41039;49.830;23.988;2023-01-08T10:33:56;41.05;;;18.55;;
55146;SDS011;41039;49.830;23.988;2023-01-08T10:36:22;41.10;;;18.55;;
55146;SDS011;41039;49.830;23.988;2023-01-08T10:38:55;52.90;;;19.58;;
55146;SDS011;41039;49.830;23.988;2023-01-08T10:41:21;39.35;;;18.65;;
55146;SDS011;41039;49.830;23.988;2023-01-08T10:43:50;39.00;;;19.58;;
55146;SDS011;41039;49.830;23.988;2023-01-08T10:46:22;45.58;;;20.38;;
55146;SDS011;41039;49.830;23.988;2023-01-08T10:48:52;37.75;;;19.25;;
55146;SDS011;41039;49.830;23.988;2023-01-08T10:51:25;39.08;;;17.63;;
55146;SDS011;41039;49.830;23.988;2023-01-08T10:53:51;42.15;;;19.45;;
55146;SDS011;41039;49.830;23.988;2023-01-08T10:56:27;37.97;;;18.05;;
55146;SDS011;41039;49.830;23.988;2023-01-08T10:58:52;41.55;;;18.73;;
55146;SDS011;41039;49.830;23.988;2023-01-08T11:01:25;37.85;;;19.88;;
55146;SDS011;41039;49.830;23.988;2023-01-08T11:03:51;41.05;;;20.35;;
55146;SDS011;41039;49.830;23.988;2023-01-08T11:06:20;43.90;;;20.40;;
55146;SDS011;41039;49.830;23.988;2023-01-08T11:08:56;45.80;;;22.00;;
55146;SDS011;41039;49.830;23.988;2023-01-08T11:11:22;37.10;;;19.65;;
55146;SDS011;41039;49.830;23.988;2023-01-08T11:13:50;38.08;;;19.10;;
55146;SDS011;41039;49.830;23.988;2023-01-08T11:16:16;38.85;;;20.48;;
55146;SDS011;41039;49.830;23.988;2023-01-08T11:18:45;44.60;;;20.88;;
55146;SDS011;41039;49.830;23.988;2023-01-08T11:21:21;43.03;;;20.75;;
55146;SDS011;41039;49.830;23.988;2023-01-08T11:23:47;41.83;;;19.13;;
55146;SDS011;41039;49.830;23.988;2023-01-08T11:26:16;39.63;;;18.48;;
55146;SDS011;41039;49.830;23.988;2023-01-08T11:28:48;46.80;;;18.52;;
55146;SDS011;41039;49.830;23.988;2023-01-08T11:36:28;48.47;;;21.27;;
55146;SDS011;41039;49.830;23.988;2023-01-08T11:38:55;40.78;;;19.80;;
55146;SDS011;41039;49.830;23.988;2023-01-08T11:41:28;40.55;;;20.92;;
55146;SDS011;41039;49.830;23.988;2023-01-08T11:49:11;52.53;;;23.83;;
55146;SDS011;41039;49.830;23.988;2023-01-08T11:54:32;63.85;;;30.23;;
55146;SDS011;41039;49.830;23.988;2023-01-08T12:02:18;41.58;;;20.50;;
55146;SDS011;41039;49.830;23.988;2023-01-08T12:09:45;44.22;;;21.35;;
55146;SDS011;41039;49.830;23.988;2023-01-08T12:14:46;45.25;;;21.15;;
55146;SDS011;41039;49.830;23.988;2023-01-08T12:17:29;42.93;;;21.13;;
55146;SDS011;41039;49.830;23.988;2023-01-08T12:25:34;36.67;;;20.52;;
55146;SDS011;41039;49.830;23.988;2023-01-08T12:28:47;35.15;;;20.60;;
55146;SDS011;41039;49.830;23.988;2023-01-08T12:33:42;47.45;;;21.52;;
55146;SDS011;41039;49.830;23.988;2023-01-08T12:36:09;39.55;;;20.25;;
55146;SDS011;41039;49.830;23.988;2023-01-08T12:38:35;37.63;;;19.30;;
55146;SDS011;41039;49.830;23.988;2023-01-08T12:41:05;44.20;;;21.23;;
55146;SDS011;41039;49.830;23.988;2023-01-08T12:43:32;45.88;;;20.88;;
55146;SDS011;41039;49.830;23.988;2023-01-08T12:45:59;45.35;;;21.58;;
55146;SDS011;41039;49.830;23.988;2023-01-08T12:48:27;40.65;;;19.85;;
55146;SDS011;41039;49.830;23.988;2023-01-08T12:56:09;38.63;;;20.33;;
55146;SDS011;41039;49.830;23.988;2023-01-08T13:03:46;43.45;;;21.98;;
55146;SDS011;41039;49.830;23.988;2023-01-08T13:06:12;49.60;;;23.48;;
55146;SDS011;41039;49.830;23.988;2023-01-08T13:08:39;50.33;;;22.77;;
55146;SDS011;41039;49.830;23.988;2023-01-08T13:11:05;43.50;;;20.98;;
55146;SDS011;41039;49.830;23.988;2023-01-08T13:13:35;43.10;;;19.83;;
55146;SDS011;41039;49.830;23.988;2023-01-08T13:16:14;44.85;;;22.30;;
55146;SDS011;41039;49.830;23.988;2023-01-08T13:18:51;42.03;;;20.42;;
55146;SDS011;41039;49.830;23.988;2023-01-08T13:21:17;50.28;;;20.27;;
55146;SDS011;41039;49.830;23.988;2023-01-08T13:23:42;45.83;;;23.60;;
55146;SDS011;41039;49.830;23.988;2023-01-08T13:26:07;37.45;;;20.90;;
55146;SDS011;41039;49.830;23.988;2023-01-08T13:31:08;44.25;;;21.42;;
55146;SDS011;41039;49.830;23.988;2023-01-08T13:38:37;41.63;;;22.42;;
55146;SDS011;41039;49.830;23.988;2023-01-08T13:41:02;46.10;;;22.83;;
55146;SDS011;41039;49.830;23.988;2023-01-08T13:43:40;42.47;;;20.20;;
55146;SDS011;41039;49.830;23.988;2023-01-08T13:48:35;43.70;;;22.00;;
55146;SDS011;41039;49.830;23.988;2023-01-08T13:51:01;54.17;;;24.83;;
55146;SDS011;41039;49.830;23.988;2023-01-08T13:53:26;52.25;;;24.67;;
55146;SDS011;41039;49.830;23.988;2023-01-08T13:56:01;48.20;;;23.98;;
55146;SDS011;41039;49.830;23.988;2023-01-08T13:58:36;43.53;;;21.23;;
55146;SDS011;41039;49.830;23.988;2023-01-08T14:01:02;51.50;;;24.17;;
55146;SDS011;41039;49.830;23.988;2023-01-08T14:03:34;50.55;;;22.75;;
55146;SDS011;41039;49.830;23.988;2023-01-08T14:06:12;49.38;;;23.77;;
55146;SDS011;41039;49.830;23.988;2023-01-08T14:08:55;45.88;;;23.10;;
55146;SDS011;41039;49.830;23.988;2023-01-08T14:11:40;50.80;;;23.67;;
55146;SDS011;41039;49.830;23.988;2023-01-08T14:14:10;51.53;;;23.70;;
55146;SDS011;41039;49.830;23.988;2023-01-08T14:16:36;56.55;;;24.95;;
55146;SDS011;41039;49.830;23.988;2023-01-08T14:19:02;57.42;;;28.42;;
55146;SDS011;41039;49.830;23.988;2023-01-08T14:21:28;53.10;;;24.00;;
55146;SDS011;41039;49.830;23.988;2023-01-08T14:23:54;51.72;;;24.25;;
55146;SDS011;41039;49.830;23.988;2023-01-08T14:26:27;53.20;;;25.25;;
55146;SDS011;41039;49.830;23.988;2023-01-08T14:28:55;52.85;;;24.33;;
55146;SDS011;41039;49.830;23.988;2023-01-08T14:31:22;52.08;;;24.17;;
55146;SDS011;41039;49.830;23.988;2023-01-08T14:33:48;54.75;;;24.20;;
55146;SDS011;41039;49.830;23.988;2023-01-08T14:36:13;55.85;;;24.88;;
55146;SDS011;41039;49.830;23.988;2023-01-08T14:38:39;65.55;;;27.00;;
55146;SDS011;41039;49.830;23.988;2023-01-08T14:41:08;58.70;;;28.55;;
55146;SDS011;41039;49.830;23.988;2023-01-08T14:43:41;52.63;;;26.63;;
55146;SDS011;41039;49.830;23.988;2023-01-08T14:46:26;50.75;;;21.88;;
55146;SDS011;41039;49.830;23.988;2023-01-08T14:48:52;51.60;;;24.50;;
55146;SDS011;41039;49.830;23.988;2023-01-08T14:51:27;52.80;;;24.85;;
55146;SDS011;41039;49.830;23.988;2023-01-08T14:56:21;57.55;;;24.02;;
55146;SDS011;41039;49.830;23.988;2023-01-08T14:58:47;59.45;;;24.88;;
55146;SDS011;41039;49.830;23.988;2023-01-08T15:03:43;54.55;;;23.65;;
55146;SDS011;41039;49.830;23.988;2023-01-08T15:06:08;59.28;;;25.80;;
55146;SDS011;41039;49.830;23.988;2023-01-08T15:08:38;59.42;;;25.75;;
55146;SDS011;41039;49.830;23.988;2023-01-08T15:11:04;53.95;;;25.63;;
55146;SDS011;41039;49.830;23.988;2023-01-08T15:13:31;62.08;;;25.23;;
55146;SDS011;41039;49.830;23.988;2023-01-08T15:16:00;57.83;;;26.23;;
55146;SDS011;41039;49.830;23.988;2023-01-08T15:18:29;49.13;;;22.37;;
55146;SDS011;41039;49.830;23.988;2023-01-08T15:20:54;50.40;;;21.98;;
55146;SDS011;41039;49.830;23.988;2023-01-08T15:23:53;64.00;;;27.33;;
55146;SDS011;41039;49.830;23.988;2023-01-08T15:26:12;57.92;;;26.70;;
55146;SDS011;41039;49.830;23.988;2023-01-08T15:28:52;57.75;;;25.92;;
55146;SDS011;41039;49.830;23.988;2023-01-08T15:31:30;65.75;;;27.15;;
55146;SDS011;41039;49.830;23.988;2023-01-08T15:33:56;59.92;;;24.65;;
55146;SDS011;41039;49.830;23.988;2023-01-08T15:36:22;55.72;;;23.55;;